createdAt,value
2023-02-11T00:02:13.785Z,0.10
2023-02-11T00:04:43.695Z,0.20
2023-02-11T00:07:13.599Z,0.20
2023-02-11T00:09:43.449Z,0.10
2023-02-11T00:12:13.304Z,0.10
2023-02-11T00:14:43.207Z,0.10
2023-02-11T00:17:13.037Z,0.10
2023-02-11T00:19:42.890Z,0.10
2023-02-11T00:22:12.913Z,0.10
2023-02-11T00:24:42.877Z,0.15
2023-02-11T00:27:12.747Z,0.10
2023-02-11T00:29:42.661Z,0.10
2023-02-11T00:32:12.497Z,0.10
2023-02-11T00:34:42.346Z,0.10
2023-02-11T00:37:12.884Z,0.20
2023-02-11T00:39:42.939Z,0.10
2023-02-11T00:42:15.709Z,0.10
2023-02-11T00:44:45.797Z,0.20
2023-02-11T00:47:15.827Z,0.20
2023-02-11T00:49:45.666Z,0.10
2023-02-11T00:52:15.559Z,0.10
2023-02-11T00:54:45.605Z,0.10
2023-02-11T00:57:15.559Z,0.10
2023-02-11T00:59:45.779Z,0.10
2023-02-11T01:02:15.730Z,0.10
2023-02-11T01:04:47.062Z,0.20
2023-02-11T01:07:16.979Z,0.20
2023-02-11T01:09:46.852Z,0.15
2023-02-11T01:12:16.673Z,0.13
2023-02-11T01:14:46.597Z,0.10
2023-02-11T01:17:16.549Z,0.20
2023-02-11T01:19:46.513Z,0.20
2023-02-11T01:22:16.454Z,0.20
2023-02-11T01:24:46.299Z,0.10
2023-02-11T01:27:16.166Z,0.10
2023-02-11T01:29:46.204Z,0.10
2023-02-11T01:32:16.683Z,0.10
2023-02-11T01:34:46.656Z,0.10
2023-02-11T01:37:16.659Z,0.10
2023-02-11T01:39:46.601Z,0.10
2023-02-11T01:42:18.534Z,0.05
2023-02-11T01:44:50.098Z,0.10
2023-02-11T01:47:20.164Z,0.17
2023-02-11T01:49:54.872Z,0.10
2023-02-11T01:52:27.344Z,0.20
2023-02-11T01:55:16.737Z,0.10
2023-02-11T01:57:48.922Z,0.10
2023-02-11T02:00:25.803Z,0.10
2023-02-11T02:03:04.396Z,0.10
2023-02-11T02:05:45.906Z,0.10
2023-02-11T02:08:36.192Z,0.10
2023-02-11T02:11:06.088Z,0.07
2023-02-11T02:13:36.115Z,0.10
2023-02-11T02:16:09.806Z,0.10
2023-02-11T02:19:14.671Z,0.10
2023-02-11T02:22:06.289Z,0.03
2023-02-11T02:24:57.442Z,0.10
2023-02-11T02:27:32.784Z,0.10
2023-02-11T02:30:23.471Z,0.10
2023-02-11T02:33:25.089Z,0.10
2023-02-11T02:36:08.007Z,0.10
2023-02-11T02:38:42.867Z,0.05
2023-02-11T02:41:17.954Z,0.10
2023-02-11T02:43:49.772Z,0.10
2023-02-11T02:46:30.463Z,0.10
2023-02-11T02:49:00.999Z,0.10
2023-02-11T02:51:52.979Z,0.00
2023-02-11T02:54:25.530Z,0.10
2023-02-11T02:57:03.714Z,0.10
2023-02-11T02:59:54.665Z,0.10
2023-02-11T03:02:45.249Z,0.10
2023-02-11T03:05:20.116Z,0.10
2023-02-11T03:08:01.005Z,0.10
2023-02-11T03:10:36.068Z,0.10
2023-02-11T03:13:07.439Z,0.10
2023-02-11T03:15:45.707Z,0.20
2023-02-11T03:18:17.560Z,0.10
2023-02-11T03:20:47.895Z,0.10
2023-02-11T03:23:20.471Z,0.10
2023-02-11T03:25:55.811Z,0.13
2023-02-11T03:28:39.956Z,0.10
2023-02-11T03:31:12.757Z,0.10
2023-02-11T03:33:53.904Z,0.20
2023-02-11T03:36:38.680Z,0.10
2023-02-11T03:39:08.546Z,0.10
2023-02-11T03:41:38.409Z,0.10
2023-02-11T03:44:08.205Z,0.10
2023-02-11T03:46:39.397Z,0.10
2023-02-11T03:49:13.370Z,0.10
2023-02-11T03:51:43.378Z,0.20
2023-02-11T03:54:17.376Z,0.10
2023-02-11T03:56:52.831Z,0.10
2023-02-11T03:59:22.730Z,0.10
2023-02-11T04:01:54.021Z,0.10
2023-02-11T04:04:23.920Z,0.20
2023-02-11T04:06:56.015Z,0.10
2023-02-11T04:09:25.897Z,0.20
2023-02-11T04:11:55.736Z,0.10
2023-02-11T04:14:25.899Z,0.20
2023-02-11T04:16:55.753Z,0.20
2023-02-11T04:19:25.610Z,0.10
2023-02-11T04:21:55.551Z,0.10
2023-02-11T04:24:25.401Z,0.10
2023-02-11T04:26:55.366Z,0.20
2023-02-11T04:29:25.310Z,0.10
2023-02-11T04:31:55.241Z,0.10
2023-02-11T04:34:25.588Z,0.30
2023-02-11T04:36:55.630Z,0.20
2023-02-11T04:39:25.501Z,0.10
2023-02-11T04:41:55.420Z,0.20
2023-02-11T04:44:25.326Z,0.20
2023-02-11T04:46:55.287Z,0.20
2023-02-11T04:49:26.483Z,0.10
2023-02-11T04:52:00.125Z,0.13
2023-02-11T04:54:30.259Z,0.10
2023-02-11T04:57:02.428Z,0.20
2023-02-11T04:59:32.548Z,0.20
2023-02-11T05:02:03.440Z,0.12
2023-02-11T05:04:33.566Z,0.20
2023-02-11T05:07:04.575Z,0.20
2023-02-11T05:09:34.617Z,0.10
2023-02-11T05:12:05.731Z,0.10
2023-02-11T05:14:36.228Z,0.20
2023-02-11T05:17:06.078Z,0.20
2023-02-11T05:19:36.411Z,0.20
2023-02-11T05:22:06.322Z,0.20
2023-02-11T05:24:36.190Z,0.10
2023-02-11T05:27:06.067Z,0.10
2023-02-11T05:29:35.979Z,0.20
2023-02-11T05:32:06.049Z,0.16
2023-02-11T05:34:35.900Z,0.20
2023-02-11T05:37:08.244Z,0.20
2023-02-11T05:39:38.264Z,0.20
2023-02-11T05:42:08.182Z,0.13
2023-02-11T05:44:38.097Z,0.20
2023-02-11T05:47:09.255Z,0.23
2023-02-11T05:49:39.122Z,0.20
2023-02-11T05:52:09.054Z,0.20
2023-02-11T05:54:38.916Z,0.17
2023-02-11T05:57:08.796Z,0.13
2023-02-11T05:59:38.644Z,0.20
2023-02-11T06:02:08.837Z,0.20
2023-02-11T06:04:38.937Z,0.10
2023-02-11T06:07:08.828Z,0.23
2023-02-11T06:09:39.262Z,0.20
2023-02-11T06:12:09.456Z,0.20
2023-02-11T06:14:39.338Z,0.20
2023-02-11T06:17:09.196Z,0.20
2023-02-11T06:19:39.233Z,0.10
2023-02-11T06:22:09.090Z,0.20
2023-02-11T06:24:59.878Z,0.20
2023-02-11T06:27:10.792Z,0.20
2023-02-11T06:29:40.631Z,0.10
2023-02-11T06:32:28.146Z,0.20
2023-02-11T06:34:42.201Z,0.20
2023-02-11T06:37:12.082Z,0.20
2023-02-11T06:39:41.999Z,0.20
2023-02-11T06:42:12.041Z,0.20
2023-02-11T06:44:42.041Z,0.15
2023-02-11T06:47:12.057Z,0.20
2023-02-11T06:49:41.898Z,0.20
2023-02-11T06:52:11.809Z,0.20
2023-02-11T06:54:41.711Z,0.20
2023-02-11T06:57:11.578Z,0.20
2023-02-11T06:59:41.601Z,0.20
2023-02-11T07:02:14.584Z,0.30
2023-02-11T07:04:44.767Z,0.20
2023-02-11T07:07:14.699Z,0.20
2023-02-11T07:09:44.679Z,0.30
2023-02-11T07:12:14.630Z,0.20
2023-02-11T07:14:44.543Z,0.20
2023-02-11T07:17:14.387Z,0.20
2023-02-11T07:19:44.309Z,0.20
2023-02-11T07:22:14.288Z,0.20
2023-02-11T07:24:44.297Z,0.20
2023-02-11T07:27:14.240Z,0.15
2023-02-11T07:29:46.086Z,0.10
2023-02-11T07:32:18.914Z,0.20
2023-02-11T07:34:49.406Z,0.13
2023-02-11T07:37:19.446Z,0.20
2023-02-11T07:39:49.279Z,0.20
2023-02-11T07:42:19.133Z,0.13
2023-02-11T07:44:50.602Z,0.20
2023-02-11T07:47:22.954Z,0.17
2023-02-11T07:49:56.113Z,0.20
2023-02-11T07:52:24.393Z,0.20
2023-02-11T07:54:54.336Z,0.13
2023-02-11T07:57:24.231Z,0.20
2023-02-11T07:59:54.742Z,0.20
2023-02-11T08:02:24.894Z,0.23
2023-02-11T08:04:54.863Z,0.20
2023-02-11T08:07:24.728Z,0.20
2023-02-11T08:09:55.913Z,0.30
2023-02-11T08:12:28.020Z,0.28
2023-02-11T08:14:57.998Z,0.30
2023-02-11T08:17:27.873Z,0.25
2023-02-11T08:19:57.822Z,0.15
2023-02-11T08:22:29.174Z,0.20
2023-02-11T08:25:02.012Z,0.25
2023-02-11T08:27:33.408Z,0.16
2023-02-11T08:30:04.066Z,0.20
2023-02-11T08:32:39.266Z,0.20
2023-02-11T08:35:09.631Z,0.20
2023-02-11T08:37:39.473Z,0.20
2023-02-11T08:40:09.751Z,0.30
2023-02-11T08:42:39.672Z,0.20
2023-02-11T08:45:11.151Z,0.20
2023-02-11T08:47:41.306Z,0.20
2023-02-11T08:50:11.546Z,0.20
2023-02-11T08:52:43.691Z,0.20
2023-02-11T08:55:13.575Z,0.20
2023-02-11T08:57:43.690Z,0.20
2023-02-11T09:00:14.302Z,0.10
2023-02-11T09:02:44.196Z,0.20
2023-02-11T09:05:14.191Z,0.20
2023-02-11T09:07:44.088Z,0.28
2023-02-11T09:10:13.926Z,0.20
2023-02-11T09:12:43.924Z,0.25
2023-02-11T09:15:13.896Z,0.20
2023-02-11T09:17:43.735Z,0.10
2023-02-11T09:20:13.701Z,0.20
2023-02-11T09:22:46.232Z,0.23
2023-02-11T09:25:16.126Z,0.20
2023-02-11T09:27:46.067Z,0.20
2023-02-11T09:30:16.059Z,0.20
2023-02-11T09:32:45.880Z,0.20
2023-02-11T09:35:15.833Z,0.20
2023-02-11T09:37:45.746Z,0.10
2023-02-11T09:40:18.110Z,0.20
2023-02-11T09:42:50.729Z,0.20
2023-02-11T09:45:25.119Z,0.20
2023-02-11T09:47:57.923Z,0.20
2023-02-11T09:50:51.842Z,0.20
2023-02-11T09:53:31.801Z,0.20
2023-02-11T09:56:03.270Z,0.20
2023-02-11T09:58:35.649Z,0.20
2023-02-11T10:01:38.045Z,0.30
2023-02-11T10:04:25.752Z,0.28
2023-02-11T10:07:02.119Z,0.30
2023-02-11T10:09:37.744Z,0.30
2023-02-11T10:12:29.857Z,0.30
2023-02-11T10:15:35.350Z,0.30
2023-02-11T10:18:28.814Z,0.20
2023-02-11T10:21:20.878Z,0.20
2023-02-11T10:23:53.126Z,0.27
2023-02-11T10:26:23.053Z,0.30
2023-02-11T10:28:54.415Z,0.20
2023-02-11T10:31:32.346Z,0.27
2023-02-11T10:34:07.793Z,0.20
2023-02-11T10:36:38.756Z,0.20
2023-02-11T10:39:17.073Z,0.30
2023-02-11T10:41:49.478Z,0.28
2023-02-11T10:44:34.126Z,0.20
2023-02-11T10:47:13.097Z,0.23
2023-02-11T10:49:44.538Z,0.20
2023-02-11T10:52:28.248Z,0.20
2023-02-11T10:55:09.621Z,0.20
2023-02-11T10:57:43.459Z,0.20
2023-02-11T11:00:38.592Z,0.20
2023-02-11T11:03:20.071Z,0.20
2023-02-11T11:05:58.571Z,0.20
2023-02-11T11:08:39.767Z,0.20
2023-02-11T11:11:11.325Z,0.30
2023-02-11T11:13:44.191Z,0.25
2023-02-11T11:16:19.742Z,0.20
2023-02-11T11:18:51.032Z,0.20
2023-02-11T11:21:32.772Z,0.30
2023-02-11T11:24:04.023Z,0.20
2023-02-11T11:26:45.193Z,0.20
2023-02-11T11:29:18.002Z,0.20
2023-02-11T11:31:58.542Z,0.20
2023-02-11T11:34:35.361Z,0.20
2023-02-11T11:37:14.059Z,0.25
2023-02-11T11:39:45.332Z,0.20
2023-02-11T11:42:29.132Z,0.20
2023-02-11T11:45:01.106Z,0.10
2023-02-11T11:47:53.105Z,0.15
2023-02-11T11:50:31.834Z,0.20
2023-02-11T11:53:22.373Z,0.18
2023-02-11T11:56:05.938Z,0.20
2023-02-11T11:58:37.655Z,0.20
2023-02-11T12:01:38.664Z,0.20
2023-02-11T12:04:27.455Z,0.10
2023-02-11T12:07:28.508Z,0.13
2023-02-11T12:10:15.822Z,0.10
2023-02-11T12:13:04.449Z,0.10
2023-02-11T12:16:01.217Z,0.10
2023-02-11T12:18:59.252Z,0.20
2023-02-11T12:21:37.488Z,0.20
2023-02-11T12:24:17.393Z,0.10
2023-02-11T12:27:08.540Z,0.20
2023-02-11T12:29:41.116Z,0.20
2023-02-11T12:32:19.815Z,0.10
2023-02-11T12:35:16.575Z,0.10
2023-02-11T12:38:22.402Z,0.10
2023-02-11T12:41:10.988Z,0.10
2023-02-11T12:43:41.663Z,0.10
2023-02-11T12:46:29.158Z,0.20
2023-02-11T12:49:11.032Z,0.10
2023-02-11T12:51:46.247Z,0.20
2023-02-11T12:54:37.013Z,0.10
2023-02-11T12:57:18.352Z,0.10
2023-02-11T13:00:02.634Z,0.20
2023-02-11T13:03:11.288Z,0.10
2023-02-11T13:05:45.242Z,0.10
2023-02-11T13:08:26.432Z,0.10
2023-02-11T13:11:01.000Z,0.10
2023-02-11T13:13:35.621Z,0.10
2023-02-11T13:16:10.656Z,0.10
2023-02-11T13:19:04.569Z,0.20
2023-02-11T13:21:37.690Z,0.20
2023-02-11T13:24:37.387Z,0.10
2023-02-11T13:27:34.156Z,0.10
2023-02-11T13:30:21.288Z,0.10
2023-02-11T13:33:01.616Z,0.10
2023-02-11T13:35:39.425Z,0.10
2023-02-11T13:38:20.095Z,0.10
2023-02-11T13:41:01.564Z,0.10
2023-02-11T13:43:31.485Z,0.10
2023-02-11T13:46:06.385Z,0.17
2023-02-11T13:48:50.769Z,0.10
2023-02-11T13:51:23.489Z,0.20
2023-02-11T13:53:58.172Z,0.20
2023-02-11T13:56:35.587Z,0.10
2023-02-11T13:59:08.798Z,0.10
2023-02-11T14:02:19.937Z,0.10
2023-02-11T14:05:22.108Z,0.05
2023-02-11T14:08:32.957Z,0.10
2023-02-11T14:11:12.498Z,0.20
2023-02-11T14:13:54.082Z,0.10
2023-02-11T14:16:37.085Z,0.20
2023-02-11T14:19:00.517Z,0.10
2023-02-11T14:21:35.288Z,0.28
2023-02-11T14:24:11.177Z,0.10
2023-02-11T14:26:49.921Z,0.10
2023-02-11T14:29:34.282Z,0.20
2023-02-11T14:32:37.816Z,0.10
2023-02-11T14:35:19.660Z,0.10
2023-02-11T14:38:01.182Z,0.10
2023-02-11T14:40:36.546Z,0.10
2023-02-11T14:43:24.890Z,0.20
2023-02-11T14:45:56.508Z,0.20
2023-02-11T14:48:30.077Z,0.15
2023-02-11T14:51:15.665Z,0.10
2023-02-11T14:53:49.872Z,0.03
2023-02-11T14:56:26.053Z,0.10
2023-02-11T14:58:56.029Z,0.10
2023-02-11T15:01:37.392Z,0.10
2023-02-11T15:04:09.310Z,0.10
2023-02-11T15:06:40.926Z,0.20
2023-02-11T15:09:18.750Z,0.10
2023-02-11T15:11:49.675Z,0.10
2023-02-11T15:14:25.443Z,0.10
2023-02-11T15:16:57.513Z,0.20
2023-02-11T15:19:33.014Z,0.10
2023-02-11T15:22:01.596Z,0.20
2023-02-11T15:24:38.950Z,0.10
2023-02-11T15:27:14.988Z,0.20
2023-02-11T15:29:46.346Z,0.20
2023-02-11T15:32:18.075Z,0.10
2023-02-11T15:34:48.207Z,0.20
2023-02-11T15:37:23.037Z,0.20
2023-02-11T15:39:52.880Z,0.10
2023-02-11T15:42:50.747Z,0.20
2023-02-11T15:45:21.363Z,0.20
2023-02-11T15:47:52.831Z,0.20
2023-02-11T15:50:25.095Z,0.10
2023-02-11T15:52:54.992Z,0.10
2023-02-11T15:55:25.406Z,0.10
2023-02-11T15:57:59.982Z,0.10
2023-02-11T16:00:34.729Z,0.10
2023-02-11T16:03:05.294Z,0.20
2023-02-11T16:05:39.065Z,0.20
2023-02-11T16:08:30.514Z,0.47
2023-02-11T16:11:03.561Z,0.70
2023-02-11T16:13:35.657Z,0.60
2023-02-11T16:16:06.940Z,0.93
2023-02-11T16:18:42.464Z,0.40
2023-02-11T16:21:17.590Z,0.20
2023-02-11T16:23:52.492Z,0.47
2023-02-11T16:26:33.748Z,0.30
2023-02-11T16:29:15.155Z,0.30
2023-02-11T16:31:49.193Z,0.30
2023-02-11T16:36:52.019Z,0.40
2023-02-11T16:39:27.644Z,0.20
2023-02-11T16:41:57.989Z,0.27
2023-02-11T16:44:27.832Z,0.23
2023-02-11T16:46:57.772Z,0.30
2023-02-11T16:49:29.797Z,0.50
2023-02-11T16:52:03.046Z,0.70
2023-02-11T16:54:33.323Z,0.30
2023-02-11T16:57:05.973Z,0.78
2023-02-11T16:59:36.616Z,0.50
2023-02-11T17:02:08.986Z,0.50
2023-02-11T17:04:38.813Z,0.50
2023-02-11T17:07:09.377Z,0.70
2023-02-11T17:09:39.239Z,0.70
2023-02-11T17:12:09.295Z,0.30
2023-02-11T17:14:39.182Z,0.30
2023-02-11T17:17:09.054Z,0.30
2023-02-11T17:19:38.872Z,0.30
2023-02-11T17:22:08.803Z,0.30
2023-02-11T17:24:38.634Z,0.30
2023-02-11T17:27:08.453Z,0.30
2023-02-11T17:29:38.340Z,0.40
2023-02-11T17:32:09.641Z,0.40
2023-02-11T17:34:39.610Z,0.40
2023-02-11T17:37:10.866Z,0.60
2023-02-11T17:39:40.976Z,0.70
2023-02-11T17:42:12.379Z,0.60
2023-02-11T17:44:42.264Z,0.50
2023-02-11T17:47:12.102Z,0.60
2023-02-11T17:49:41.956Z,0.55
2023-02-11T17:52:12.118Z,0.50
2023-02-11T17:54:41.961Z,0.40
2023-02-11T17:57:12.912Z,0.50
2023-02-11T17:59:42.840Z,0.50
2023-02-11T18:02:13.883Z,0.50
2023-02-11T18:04:43.741Z,0.40
2023-02-11T18:07:15.812Z,0.50
2023-02-11T18:09:45.693Z,0.30
2023-02-11T18:12:15.525Z,0.42
2023-02-11T18:14:45.475Z,0.42
2023-02-11T18:17:15.294Z,0.50
2023-02-11T18:19:45.348Z,0.47
2023-02-11T18:22:15.512Z,0.40
2023-02-11T18:24:45.327Z,0.40
2023-02-11T18:27:15.150Z,0.37
2023-02-11T18:29:45.063Z,0.40
2023-02-11T18:32:15.291Z,0.40
2023-02-11T18:34:45.107Z,0.50
2023-02-11T18:37:15.098Z,0.50
2023-02-11T18:39:45.185Z,0.62
2023-02-11T18:42:15.030Z,0.78
2023-02-11T18:44:44.913Z,0.60
2023-02-11T18:47:14.757Z,0.82
2023-02-11T18:49:44.599Z,1.10
2023-02-11T18:52:14.500Z,0.50
2023-02-11T18:54:44.308Z,1.15
2023-02-11T18:57:14.129Z,1.00
2023-02-11T18:59:44.600Z,1.20
2023-02-11T19:02:14.398Z,1.10
2023-02-11T19:04:44.211Z,1.40
2023-02-11T19:07:14.252Z,1.20
2023-02-11T19:09:44.104Z,1.52
2023-02-11T19:12:13.942Z,1.27
2023-02-11T19:14:43.827Z,1.55
2023-02-11T19:17:13.980Z,1.30
2023-02-11T19:19:43.830Z,1.30
2023-02-11T19:22:13.742Z,1.47
2023-02-11T19:24:43.577Z,1.27
2023-02-11T19:27:13.430Z,1.40
2023-02-11T19:29:43.457Z,0.80
2023-02-11T19:32:13.516Z,0.80
2023-02-11T19:34:43.361Z,1.10
2023-02-11T19:37:16.704Z,0.95
2023-02-11T19:39:46.556Z,0.80
2023-02-11T19:42:16.539Z,0.88
2023-02-11T19:44:46.473Z,0.80
2023-02-11T19:47:16.351Z,0.88
2023-02-11T19:49:46.180Z,0.80
2023-02-11T19:52:16.393Z,0.80
2023-02-11T19:54:46.433Z,0.93
2023-02-11T19:57:16.306Z,0.80
2023-02-11T19:59:46.311Z,0.80
2023-02-11T20:02:16.160Z,0.80
2023-02-11T20:04:46.992Z,0.85
2023-02-11T20:07:16.988Z,0.80
2023-02-11T20:09:50.335Z,0.72
2023-02-11T20:12:20.218Z,0.80
2023-02-11T20:14:50.112Z,0.77
2023-02-11T20:17:19.957Z,0.80
2023-02-11T20:19:49.769Z,0.60
2023-02-11T20:22:19.670Z,0.70
2023-02-11T20:24:49.531Z,0.80
2023-02-11T20:27:20.184Z,0.78
2023-02-11T20:29:50.193Z,0.70
2023-02-11T20:32:20.222Z,0.82
2023-02-11T20:34:50.100Z,0.70
2023-02-11T20:37:19.970Z,0.53
2023-02-11T20:39:51.060Z,0.40
2023-02-11T20:42:21.081Z,0.50
2023-02-11T20:44:53.415Z,0.72
2023-02-11T20:47:23.457Z,0.67
2023-02-11T20:49:53.356Z,0.60
2023-02-11T20:52:23.746Z,0.40
2023-02-11T20:54:53.584Z,0.43
2023-02-11T20:57:23.439Z,0.67
2023-02-11T20:59:53.359Z,0.50
2023-02-11T21:02:24.854Z,0.50
2023-02-11T21:04:54.681Z,0.60
2023-02-11T21:07:26.954Z,0.50
2023-02-11T21:09:56.798Z,0.53
2023-02-11T21:12:27.202Z,0.42
2023-02-11T21:14:57.954Z,0.47
2023-02-11T21:17:28.236Z,0.60
2023-02-11T21:19:58.186Z,0.40
2023-02-11T21:22:28.108Z,0.53
2023-02-11T21:24:57.979Z,0.50
2023-02-11T21:27:29.190Z,0.57
2023-02-11T21:29:59.088Z,0.50
2023-02-11T21:32:28.965Z,0.53
2023-02-11T21:35:01.873Z,0.50
2023-02-11T21:37:30.689Z,0.35
2023-02-11T21:40:00.557Z,0.60
2023-02-11T21:42:30.472Z,0.50
2023-02-11T21:45:00.421Z,0.40
2023-02-11T21:47:30.491Z,0.60
2023-02-11T21:50:00.412Z,0.33
2023-02-11T21:52:30.540Z,0.50
2023-02-11T21:55:00.414Z,0.40
2023-02-11T21:57:30.348Z,0.60
2023-02-11T22:00:02.597Z,0.40
2023-02-11T22:02:32.535Z,0.42
2023-02-11T22:05:02.521Z,0.50
2023-02-11T22:07:34.842Z,0.47
2023-02-11T22:10:05.356Z,0.40
2023-02-11T22:12:36.277Z,0.40
2023-02-11T22:15:06.535Z,0.50
2023-02-11T22:17:37.398Z,0.35
2023-02-11T22:20:08.726Z,0.30
2023-02-11T22:22:38.645Z,0.40
2023-02-11T22:25:08.936Z,0.40
2023-02-11T22:27:38.752Z,0.48
2023-02-11T22:30:09.837Z,0.40
2023-02-11T22:32:39.864Z,0.50
2023-02-11T22:35:10.418Z,0.40
2023-02-11T22:37:40.464Z,0.50
2023-02-11T22:40:13.534Z,0.50
2023-02-11T22:42:43.349Z,0.43
2023-02-11T22:45:13.292Z,0.40
2023-02-11T22:47:43.187Z,0.50
2023-02-11T22:50:13.366Z,0.40
2023-02-11T22:52:43.282Z,0.50
2023-02-11T22:55:13.144Z,0.40
2023-02-11T22:57:43.068Z,0.40
2023-02-11T23:00:14.180Z,0.30
2023-02-11T23:02:44.174Z,0.40
2023-02-11T23:05:14.161Z,0.40
2023-02-11T23:07:44.099Z,0.40
2023-02-11T23:10:13.972Z,0.45
2023-02-11T23:12:43.705Z,0.50
2023-02-11T23:15:13.569Z,0.50
2023-02-11T23:17:43.441Z,1.03
2023-02-11T23:20:14.031Z,1.60
2023-02-11T23:22:43.944Z,0.80
2023-02-11T23:25:13.773Z,1.32
2023-02-11T23:27:43.603Z,1.23
2023-02-11T23:30:14.297Z,1.53
2023-02-11T23:32:44.242Z,1.20
2023-02-11T23:35:15.435Z,1.90
2023-02-11T23:37:45.384Z,2.37
2023-02-11T23:40:15.771Z,2.70
2023-02-11T23:42:46.282Z,4.00
2023-02-11T23:45:16.295Z,6.55
2023-02-11T23:47:46.112Z,7.97
2023-02-11T23:50:15.976Z,9.10
2023-02-11T23:52:45.949Z,10.65
2023-02-11T23:55:15.808Z,9.55
2023-02-11T23:57:45.675Z,10.57
